Hauptseite
METAR-TAF:

METAR-TAF

Flughäfen :

Flughafen Genf

Genf, Schweiz

Breite: 46-15N, Länge: 006-08E, Höhe: 420 m

Beobachtung

Neuester Wetterbericht von vor 24 Minuten, um 20:50 UTC
Wind 4 kt aus Nord
Temperatur 18°C
Luftfeuchtigkeit 45%
Luftdruck 1022 hPa
Sichtweite 10 km oder mehr
keine Wolken unter 1500 m und keine Kumulonimbus oder Gewitterwolken

METAR: LSGG 232050Z 01004KT CAVOK 18/06 Q1022 NOSIG

Zeit: 23:14 (21:14 UTC)

Prognose

Neuester Wetterbericht von vor 49 Minuten, um 20:25 UTC
Gültige Prognose vom 23 um 21 UTC bis 25 um 03 UTC
Wind 5 kt aus Nordost
Sichtweite 10 km oder mehr
keine Wolken unter 1500 m und keine Kumulonimbus oder Gewitterwolken
Übergehend zu
vom 24 um 10 UTC bis 24 um 13 UTC
Sichtweite 10 km oder mehr
Leicht bewölkt in der Höhe von 5000 ft
Aufgelockert bewölkt in der Höhe von 11000 ft

TAF: LSGG 232025Z 2321/2503 04005KT CAVOK TX22/2415Z TN11/2404Z BECMG 2410/2413 9999 FEW050 SCT110

Wetterbeobachtungen und Prognosen von mehr als 4000 Flughäfen (METAR und TAF Bericht).

Die verfügbaren Stationen werden durch gelbe und rote Markierungen auf der Karte dargestellt.

Führen Sie die Maus auf sie, um den Namen der Station zu sehen.

Darauf klicken, um die Beobachtung von Wetterbeobachtungen und Prognosen zu sehen.

Um die Karte zu ändern : klicken Sie auf den grünen Tasten mit einem schwarzen Kreuz Zum Vergrößern, auf den grünen Button mit einem Gedankenstrich zu verkleinern, oder auf die grünen Pfeile für benachbarte Karten.


METAR-TAF: